Time;durP1;ratioP1;P1;durP2;ratioP2;P2;SDS_P1;SDS_P2;PMS_P1;PMS_P2;Temp;Humidity;BMP_temperature;BMP_pressure;BME280_temperature;BME280_humidity;BME280_pressure;Samples;Min_cycle;Max_cycle;Signal;HPM_P1;HPM_P2
2023/10/28 00:01:12;;;;;;;2.03;0.60;;;9.70;99.90;;;;;;5017918;28;20620;-64
2023/10/28 00:03:44;;;;;;;0.85;0.40;;;9.60;99.90;;;;;;5020653;28;20521;-64
2023/10/28 00:06:11;;;;;;;1.42;0.50;;;9.60;99.90;;;;;;5024694;28;20069;-65
2023/10/28 00:08:43;;;;;;;0.80;0.40;;;9.70;99.90;;;;;;5021929;28;20045;-64
2023/10/28 00:11:19;;;;;;;4.53;0.93;;;9.70;99.90;;;;;;5020941;28;20057;-65
2023/10/28 00:13:52;;;;;;;0.95;0.65;;;9.60;99.90;;;;;;5029293;28;20057;-64
2023/10/28 00:16:24;;;;;;;3.30;0.63;;;9.60;99.90;;;;;;5030543;28;20037;-65
2023/10/28 00:18:56;;;;;;;1.48;0.40;;;9.60;99.90;;;;;;5022463;28;20112;-64
2023/10/28 00:21:27;;;;;;;0.30;0.30;;;9.60;99.90;;;;;;5045666;28;20580;-64
2023/10/28 00:23:56;;;;;;;1.20;0.40;;;9.60;99.90;;;;;;5029508;28;20061;-64
2023/10/28 00:26:29;;;;;;;0.73;0.50;;;9.60;99.90;;;;;;5019044;28;20076;-64
2023/10/28 00:29:01;;;;;;;0.52;0.30;;;9.50;99.90;;;;;;5028027;28;20067;-64
2023/10/28 00:31:28;;;;;;;0.80;0.40;;;9.50;99.90;;;;;;5030093;28;20041;-64
2023/10/28 00:34:00;;;;;;;0.82;0.57;;;9.50;99.90;;;;;;5036910;28;20425;-64
2023/10/28 00:36:32;;;;;;;1.85;0.50;;;9.50;99.90;;;;;;5029027;28;20046;-64
2023/10/28 00:39:03;;;;;;;1.50;0.40;;;9.40;99.90;;;;;;5029131;28;20057;-64
2023/10/28 00:41:35;;;;;;;3.72;1.05;;;9.40;99.90;;;;;;5017439;28;20046;-64
2023/10/28 00:44:08;;;;;;;0.45;0.30;;;9.40;99.90;;;;;;5025399;28;20047;-64
2023/10/28 00:46:40;;;;;;;0.98;0.57;;;9.40;99.90;;;;;;5030178;28;20494;-64
2023/10/28 00:49:14;;;;;;;1.10;0.57;;;9.30;99.90;;;;;;5016542;28;20137;-64
2023/10/28 00:51:46;;;;;;;1.25;0.50;;;9.30;99.90;;;;;;5015010;28;20570;-64
2023/10/28 00:54:18;;;;;;;1.60;0.77;;;9.30;99.90;;;;;;5015071;28;20133;-64
2023/10/28 00:56:50;;;;;;;0.70;0.47;;;9.30;99.90;;;;;;5025968;28;20053;-64
2023/10/28 00:59:23;;;;;;;1.70;0.40;;;9.30;99.90;;;;;;5029341;28;20045;-64
2023/10/28 01:01:51;;;;;;;1.35;0.45;;;9.30;99.90;;;;;;5018498;28;20540;-65
2023/10/28 01:04:23;;;;;;;2.42;0.52;;;9.20;99.90;;;;;;5028534;28;20052;-65
2023/10/28 01:06:50;;;;;;;0.80;0.40;;;9.20;99.90;;;;;;5018870;28;20038;-65
2023/10/28 01:09:22;;;;;;;0.52;0.50;;;9.20;99.90;;;;;;5027657;28;20045;-64
2023/10/28 01:11:55;;;;;;;1.88;0.50;;;9.20;99.90;;;;;;5041161;28;20045;-65
2023/10/28 01:14:27;;;;;;;0.98;0.50;;;9.30;99.90;;;;;;5012728;28;20099;-64
2023/10/28 01:17:00;;;;;;;2.40;0.50;;;9.30;99.90;;;;;;5011811;28;20058;-65
2023/10/28 01:19:34;;;;;;;0.82;0.40;;;9.30;99.90;;;;;;5010494;28;20050;-64
2023/10/28 01:22:06;;;;;;;1.55;0.45;;;9.30;99.90;;;;;;5017932;28;20041;-64
2023/10/28 01:24:38;;;;;;;1.58;0.47;;;9.30;99.90;;;;;;5027423;28;20128;-64
2023/10/28 01:27:10;;;;;;;1.98;0.55;;;9.40;99.90;;;;;;5007728;28;20050;-65
2023/10/28 01:29:42;;;;;;;1.08;0.60;;;9.40;99.90;;;;;;4998527;28;20553;-64
2023/10/28 01:32:14;;;;;;;1.27;0.45;;;9.40;99.90;;;;;;5019560;28;20041;-64
2023/10/28 01:34:50;;;;;;;1.25;0.47;;;9.40;99.90;;;;;;5028258;28;20045;-64
2023/10/28 01:37:23;;;;;;;1.58;0.50;;;9.40;99.90;;;;;;5018951;28;20046;-64
2023/10/28 01:39:54;;;;;;;1.30;0.47;;;9.40;99.90;;;;;;5017341;28;20048;-64
2023/10/28 01:42:26;;;;;;;3.55;0.60;;;9.40;99.90;;;;;;5024669;28;20065;-64
2023/10/28 01:44:53;;;;;;;2.20;0.63;;;9.40;99.90;;;;;;5026310;28;20132;-64
2023/10/28 01:47:26;;;;;;;2.20;0.50;;;9.40;99.90;;;;;;5011428;28;20406;-64
2023/10/28 01:49:58;;;;;;;1.90;0.53;;;9.40;99.90;;;;;;5025450;28;20132;-65
2023/10/28 01:52:30;;;;;;;2.10;0.82;;;9.40;99.90;;;;;;5026947;28;20280;-64
2023/10/28 01:55:02;;;;;;;1.75;0.70;;;9.40;99.90;;;;;;5026400;28;20058;-64
2023/10/28 01:57:34;;;;;;;0.75;0.30;;;9.40;99.90;;;;;;5027006;28;20529;-64
2023/10/28 02:00:12;;;;;;;4.07;0.50;;;9.40;99.90;;;;;;5011236;28;20038;-64
2023/10/28 02:02:47;;;;;;;3.42;1.42;;;9.40;99.90;;;;;;5026975;28;20052;-64
2023/10/28 02:05:18;;;;;;;1.40;0.57;;;9.40;99.90;;;;;;5019458;28;20095;-64
2023/10/28 02:07:50;;;;;;;1.48;0.35;;;9.40;99.90;;;;;;5017777;28;20046;-65
2023/10/28 02:10:23;;;;;;;2.03;0.47;;;9.40;99.90;;;;;;5027546;28;20151;-64
2023/10/28 02:12:55;;;;;;;2.38;0.50;;;9.40;99.90;;;;;;5039793;28;20610;-64
2023/10/28 02:15:27;;;;;;;1.55;0.40;;;9.30;99.90;;;;;;5025476;28;20042;-64
2023/10/28 02:17:54;;;;;;;1.27;0.68;;;9.30;99.90;;;;;;5026172;28;20050;-64
2023/10/28 02:20:28;;;;;;;3.45;1.40;;;9.30;99.90;;;;;;5026149;28;20053;-64
2023/10/28 02:22:59;;;;;;;1.23;0.50;;;9.30;99.90;;;;;;5010515;28;20057;-64
2023/10/28 02:25:31;;;;;;;1.58;1.02;;;9.30;99.90;;;;;;5013493;28;20506;-64
2023/10/28 02:28:03;;;;;;;0.95;0.43;;;9.30;99.90;;;;;;5026068;28;20505;-64
2023/10/28 02:30:39;;;;;;;3.45;0.50;;;9.20;99.90;;;;;;5032860;28;20061;-64
2023/10/28 02:33:11;;;;;;;3.40;0.45;;;9.20;99.90;;;;;;5021118;28;20052;-64
2023/10/28 02:35:37;;;;;;;1.58;0.50;;;9.20;99.90;;;;;;5004184;28;20137;-64
2023/10/28 02:38:10;;;;;;;2.13;0.50;;;9.30;99.90;;;;;;5018265;28;20124;-64
2023/10/28 02:40:46;;;;;;;1.73;0.50;;;9.30;99.90;;;;;;5020047;28;20042;-64
2023/10/28 02:43:18;;;;;;;2.85;0.50;;;9.30;99.90;;;;;;5027717;28;20049;-64
2023/10/28 02:45:50;;;;;;;1.48;0.57;;;9.30;99.90;;;;;;5028270;28;20053;-64
2023/10/28 02:48:21;;;;;;;1.27;0.50;;;9.30;99.90;;;;;;5026066;28;20042;-64
2023/10/28 02:50:53;;;;;;;0.80;0.40;;;9.40;99.90;;;;;;5005348;28;20097;-64
2023/10/28 02:53:25;;;;;;;3.30;0.60;;;9.40;99.90;;;;;;5013071;28;20052;-64
2023/10/28 02:55:57;;;;;;;3.30;0.70;;;9.40;99.90;;;;;;5027092;28;20045;-64
2023/10/28 02:58:30;;;;;;;1.25;0.43;;;9.40;99.90;;;;;;4994328;28;20097;-65
2023/10/28 03:01:12;;;;;;;2.88;0.50;;;9.50;99.90;;;;;;5010396;28;20048;-64
2023/10/28 03:03:45;;;;;;;0.95;0.40;;;9.50;99.90;;;;;;5028754;28;20043;-64
2023/10/28 03:06:17;;;;;;;1.58;1.02;;;9.60;99.90;;;;;;5028080;28;20053;-64
2023/10/28 03:08:49;;;;;;;0.70;0.40;;;9.60;99.90;;;;;;5016419;28;20046;-64
2023/10/28 03:11:21;;;;;;;1.40;0.50;;;9.60;99.90;;;;;;5027636;28;20092;-64
2023/10/28 03:13:54;;;;;;;4.05;0.40;;;9.70;99.90;;;;;;5006416;28;20137;-64
2023/10/28 03:16:26;;;;;;;1.27;0.60;;;9.70;99.90;;;;;;5032739;28;20056;-64
2023/10/28 03:18:58;;;;;;;0.55;0.30;;;9.70;99.90;;;;;;5025791;28;20041;-64
2023/10/28 03:21:30;;;;;;;1.83;0.40;;;9.70;99.90;;;;;;5028571;28;20111;-65
2023/10/28 03:24:01;;;;;;;2.90;1.08;;;9.80;99.90;;;;;;5028806;28;20041;-64
2023/10/28 03:26:33;;;;;;;1.35;0.40;;;9.70;99.90;;;;;;5029172;28;20054;-64
2023/10/28 03:29:00;;;;;;;1.95;0.60;;;9.70;99.90;;;;;;5020151;28;20041;-64
2023/10/28 03:31:32;;;;;;;2.60;0.55;;;9.70;99.90;;;;;;5030877;28;20497;-64
2023/10/28 03:34:05;;;;;;;0.60;0.45;;;9.70;99.90;;;;;;5033426;28;20054;-64
2023/10/28 03:36:37;;;;;;;2.15;0.50;;;9.70;99.90;;;;;;5021208;28;20512;-64
2023/10/28 03:39:04;;;;;;;1.27;0.32;;;9.60;99.90;;;;;;5006552;28;20053;-64
2023/10/28 03:41:37;;;;;;;2.53;0.47;;;9.60;99.90;;;;;;5025546;28;20522;-64
2023/10/28 03:44:09;;;;;;;1.13;0.35;;;9.60;99.90;;;;;;5026519;28;20618;-64
2023/10/28 03:46:41;;;;;;;1.40;0.40;;;9.60;99.90;;;;;;5017118;28;20041;-64
2023/10/28 03:49:08;;;;;;;2.00;0.50;;;9.60;99.90;;;;;;5029526;28;20596;-64
2023/10/28 03:51:40;;;;;;;1.42;0.38;;;9.60;99.90;;;;;;5015954;28;20053;-64
2023/10/28 03:54:13;;;;;;;3.28;0.55;;;9.60;99.90;;;;;;5012867;28;20457;-64
2023/10/28 03:56:45;;;;;;;1.40;0.40;;;9.60;99.90;;;;;;5015322;28;20056;-64
2023/10/28 03:59:17;;;;;;;2.35;0.65;;;9.60;99.90;;;;;;5016555;28;20046;-64
2023/10/28 04:01:49;;;;;;;3.17;0.50;;;9.60;99.90;;;;;;5029353;28;20042;-65
2023/10/28 04:04:20;;;;;;;2.03;0.65;;;9.50;99.90;;;;;;5020091;28;20038;-64
2023/10/28 04:06:55;;;;;;;1.95;0.50;;;9.60;99.90;;;;;;5024256;28;20049;-64
2023/10/28 04:09:26;;;;;;;1.98;0.47;;;9.60;99.90;;;;;;5022916;28;20046;-64
2023/10/28 04:12:00;;;;;;;3.97;0.52;;;9.60;99.90;;;;;;5023455;28;20045;-64
2023/10/28 04:14:35;;;;;;;1.25;0.40;;;9.60;99.90;;;;;;5032399;28;20064;-64
2023/10/28 04:17:07;;;;;;;2.10;0.57;;;9.60;99.90;;;;;;5029192;28;20531;-64
2023/10/28 04:19:39;;;;;;;0.80;0.50;;;9.60;99.90;;;;;;5029548;28;20409;-64
2023/10/28 04:22:10;;;;;;;1.20;0.50;;;9.60;99.90;;;;;;5031074;28;20046;-64
2023/10/28 04:24:37;;;;;;;2.22;0.47;;;9.60;99.90;;;;;;5030373;28;20042;-64
2023/10/28 04:27:09;;;;;;;0.88;0.50;;;9.60;99.90;;;;;;5014277;28;20402;-64
2023/10/28 04:29:41;;;;;;;1.85;0.40;;;9.60;99.90;;;;;;5015839;28;20130;-64
2023/10/28 04:32:13;;;;;;;1.23;0.40;;;9.60;99.90;;;;;;5017461;28;20044;-64
2023/10/28 04:34:44;;;;;;;2.38;0.68;;;9.60;99.90;;;;;;5017645;28;20053;-64
2023/10/28 04:37:17;;;;;;;0.73;0.43;;;9.60;99.90;;;;;;5022935;28;20506;-64
2023/10/28 04:39:49;;;;;;;3.30;0.57;;;9.60;99.90;;;;;;5020282;28;20077;-64
2023/10/28 04:42:21;;;;;;;7.70;0.98;;;9.60;99.90;;;;;;5029736;28;20049;-64
2023/10/28 04:44:53;;;;;;;1.83;0.52;;;9.60;99.90;;;;;;5025476;28;20529;-64
2023/10/28 04:47:25;;;;;;;1.77;0.80;;;9.50;99.90;;;;;;5026585;28;20052;-64
2023/10/28 04:49:57;;;;;;;1.23;0.40;;;9.50;99.90;;;;;;4994428;28;20054;-64
2023/10/28 04:52:30;;;;;;;1.55;0.50;;;9.40;99.90;;;;;;5015398;28;20049;-64
2023/10/28 04:54:58;;;;;;;1.90;1.02;;;9.40;99.90;;;;;;5013951;28;20045;-64
2023/10/28 04:57:30;;;;;;;1.05;0.40;;;9.40;99.90;;;;;;5013186;28;20052;-64
2023/10/28 04:59:57;;;;;;;1.50;0.50;;;9.40;99.90;;;;;;5014822;28;20429;-64
2023/10/28 05:02:24;;;;;;;1.55;0.70;;;9.30;99.90;;;;;;5016431;28;20367;-64
2023/10/28 05:04:51;;;;;;;1.27;0.45;;;9.30;99.90;;;;;;5017909;28;20046;-64
2023/10/28 05:07:24;;;;;;;1.30;0.60;;;9.20;99.90;;;;;;5028475;28;20414;-64
2023/10/28 05:09:55;;;;;;;2.75;0.52;;;9.10;99.90;;;;;;5023197;28;20053;-64
2023/10/28 05:12:28;;;;;;;1.85;0.40;;;9.10;99.90;;;;;;5021138;28;20124;-64
2023/10/28 05:14:54;;;;;;;4.82;2.15;;;9.00;99.90;;;;;;5024114;28;20045;-64
2023/10/28 05:17:26;;;;;;;3.38;0.45;;;9.00;99.90;;;;;;5016682;28;20038;-64
2023/10/28 05:19:58;;;;;;;0.90;0.50;;;9.00;99.90;;;;;;5028280;28;20450;-64
2023/10/28 05:22:31;;;;;;;1.17;0.70;;;9.00;99.90;;;;;;5043370;28;20056;-64
2023/10/28 05:25:04;;;;;;;0.80;0.50;;;8.90;99.90;;;;;;5025353;28;20041;-64
2023/10/28 05:27:36;;;;;;;0.60;0.30;;;8.80;99.90;;;;;;5021242;28;20046;-64
2023/10/28 05:30:11;;;;;;;1.85;0.68;;;8.80;99.90;;;;;;5029888;28;20041;-64
2023/10/28 05:32:42;;;;;;;1.17;0.70;;;8.80;99.90;;;;;;5027328;28;20049;-64
2023/10/28 05:35:14;;;;;;;0.82;0.70;;;8.80;99.90;;;;;;5027130;28;20050;-64
2023/10/28 05:37:46;;;;;;;1.50;0.40;;;8.90;99.90;;;;;;5024556;28;20045;-64
2023/10/28 05:40:18;;;;;;;2.72;0.50;;;8.90;99.90;;;;;;5018281;28;20498;-64
2023/10/28 05:42:50;;;;;;;1.00;0.50;;;8.80;99.90;;;;;;5021187;28;20038;-64
2023/10/28 05:45:22;;;;;;;1.13;0.43;;;8.80;99.90;;;;;;5023595;28;20104;-64
2023/10/28 05:47:49;;;;;;;2.05;0.50;;;8.80;99.90;;;;;;5023727;28;20041;-64
2023/10/28 05:50:21;;;;;;;2.17;0.60;;;8.80;99.90;;;;;;5040686;28;20631;-64
2023/10/28 05:52:54;;;;;;;1.55;0.57;;;8.80;99.90;;;;;;5018039;28;20042;-64
2023/10/28 05:55:26;;;;;;;0.93;0.30;;;8.80;99.90;;;;;;5000478;28;20045;-64
2023/10/28 05:57:57;;;;;;;3.42;0.65;;;8.80;99.90;;;;;;5006475;28;20139;-64
2023/10/28 06:00:29;;;;;;;2.53;1.58;;;8.70;99.90;;;;;;5001319;28;20061;-64
2023/10/28 06:03:01;;;;;;;1.83;0.50;;;8.70;99.90;;;;;;5009997;28;20048;-64
2023/10/28 06:05:34;;;;;;;0.70;0.50;;;8.70;99.90;;;;;;5012440;28;20041;-64
2023/10/28 06:08:08;;;;;;;2.50;0.73;;;8.70;99.90;;;;;;5020867;28;20049;-64
2023/10/28 06:10:39;;;;;;;5.88;0.50;;;8.70;99.90;;;;;;5012129;28;20049;-64
2023/10/28 06:13:11;;;;;;;1.75;1.00;;;8.70;99.90;;;;;;5013951;28;20034;-64
2023/10/28 06:15:44;;;;;;;6.25;2.33;;;8.60;99.90;;;;;;5010164;28;20057;-64
2023/10/28 06:18:19;;;;;;;0.82;0.73;;;8.60;99.90;;;;;;5011499;28;20066;-64
2023/10/28 06:20:47;;;;;;;2.38;0.57;;;8.60;99.90;;;;;;5011654;28;20549;-64
2023/10/28 06:23:19;;;;;;;1.40;0.52;;;8.50;99.90;;;;;;5010195;28;20045;-64
2023/10/28 06:25:50;;;;;;;2.40;0.57;;;8.50;99.90;;;;;;5001455;28;20052;-64
2023/10/28 06:28:22;;;;;;;4.40;0.93;;;8.50;99.90;;;;;;4991209;28;20049;-65
2023/10/28 06:30:55;;;;;;;2.03;0.70;;;8.50;99.90;;;;;;4999861;28;20046;-64
2023/10/28 06:33:24;;;;;;;1.10;0.47;;;8.50;99.90;;;;;;5012891;28;20049;-64
2023/10/28 06:35:56;;;;;;;2.80;0.90;;;8.50;99.90;;;;;;5003214;28;20042;-64
2023/10/28 06:38:29;;;;;;;2.63;0.80;;;8.40;99.90;;;;;;5015516;28;20145;-64
2023/10/28 06:40:57;;;;;;;1.65;0.60;;;8.50;99.90;;;;;;5017125;28;20029;-64
2023/10/28 06:43:29;;;;;;;1.00;0.65;;;8.50;99.90;;;;;;5015798;28;20506;-64
2023/10/28 06:46:00;;;;;;;2.75;0.57;;;8.50;99.90;;;;;;5015825;28;20025;-64
2023/10/28 06:48:33;;;;;;;2.08;0.47;;;8.50;99.90;;;;;;5016044;28;20042;-65
2023/10/28 06:51:06;;;;;;;1.02;0.57;;;8.60;99.90;;;;;;5017239;28;20042;-65
2023/10/28 06:53:42;;;;;;;1.00;0.57;;;8.60;99.90;;;;;;5014318;28;20073;-65
2023/10/28 06:56:15;;;;;;;2.33;0.60;;;8.60;99.90;;;;;;5026104;28;20485;-64
2023/10/28 06:58:42;;;;;;;1.15;0.50;;;8.60;99.90;;;;;;5013976;28;20040;-65
2023/10/28 07:01:14;;;;;;;2.17;0.60;;;8.60;99.90;;;;;;5012735;28;20033;-64
2023/10/28 07:03:46;;;;;;;1.73;0.60;;;8.70;99.90;;;;;;5015318;28;20045;-65
2023/10/28 07:06:17;;;;;;;2.75;1.02;;;8.80;99.90;;;;;;5022096;28;20576;-65
2023/10/28 07:08:49;;;;;;;2.47;1.10;;;8.80;99.90;;;;;;5024485;28;20445;-65
2023/10/28 07:11:21;;;;;;;1.88;0.50;;;8.90;99.90;;;;;;5026334;28;20060;-65
2023/10/28 07:13:53;;;;;;;1.55;0.55;;;9.00;99.90;;;;;;5034584;28;20050;-65
2023/10/28 07:16:27;;;;;;;2.95;0.77;;;9.10;99.90;;;;;;5020729;28;20126;-65
2023/10/28 07:18:59;;;;;;;2.03;0.57;;;9.30;99.90;;;;;;5015760;28;20041;-64
2023/10/28 07:21:31;;;;;;;2.43;0.63;;;9.40;99.90;;;;;;5018519;28;20045;-65
2023/10/28 07:23:58;;;;;;;1.40;0.50;;;9.50;99.90;;;;;;5014719;28;20036;-64
2023/10/28 07:26:30;;;;;;;1.63;0.60;;;9.60;99.90;;;;;;5016863;28;20038;-65
2023/10/28 07:29:02;;;;;;;2.05;0.50;;;9.70;99.90;;;;;;5015764;28;20046;-64
2023/10/28 07:31:28;;;;;;;1.80;0.57;;;9.70;99.90;;;;;;5025042;28;20064;-64
2023/10/28 07:34:00;;;;;;;1.50;0.60;;;9.70;99.90;;;;;;5027981;28;20049;-65
2023/10/28 07:36:27;;;;;;;3.88;0.65;;;9.70;99.90;;;;;;5031521;28;20061;-65
2023/10/28 07:38:54;;;;;;;2.22;0.40;;;9.80;99.90;;;;;;5019506;28;20152;-67
2023/10/28 07:41:21;;;;;;;3.53;0.50;;;9.80;99.90;;;;;;5026200;28;20041;-64
2023/10/28 07:43:53;;;;;;;2.85;0.52;;;9.70;99.90;;;;;;5030570;28;20095;-65
2023/10/28 07:46:26;;;;;;;1.42;0.52;;;9.70;99.90;;;;;;5022389;28;20038;-65
2023/10/28 07:48:58;;;;;;;1.80;0.53;;;9.60;99.90;;;;;;5005991;28;20417;-65
2023/10/28 07:51:29;;;;;;;1.85;0.57;;;9.70;99.90;;;;;;5017309;28;20300;-65
2023/10/28 07:53:56;;;;;;;2.13;0.43;;;9.70;99.90;;;;;;5031487;28;20057;-65
2023/10/28 07:56:29;;;;;;;2.33;0.73;;;9.80;99.90;;;;;;5030306;28;20049;-65
2023/10/28 07:59:01;;;;;;;0.82;0.50;;;9.80;99.90;;;;;;5026664;28;20049;-64
2023/10/28 08:01:33;;;;;;;1.88;0.60;;;9.90;99.90;;;;;;5013213;28;20049;-65
2023/10/28 08:04:06;;;;;;;1.67;0.70;;;10.00;99.90;;;;;;5014080;28;20521;-65
2023/10/28 08:06:38;;;;;;;2.55;0.60;;;10.10;99.90;;;;;;5012022;28;20057;-65
2023/10/28 08:09:10;;;;;;;0.70;0.50;;;10.10;99.90;;;;;;5017500;28;20053;-65
2023/10/28 08:11:42;;;;;;;0.88;0.40;;;10.20;99.90;;;;;;5007813;28;20052;-65
2023/10/28 08:14:14;;;;;;;1.75;0.55;;;10.40;99.90;;;;;;5000215;28;20068;-66
2023/10/28 08:16:46;;;;;;;1.15;0.43;;;10.40;99.90;;;;;;5019063;28;20041;-65
2023/10/28 08:19:19;;;;;;;1.83;1.05;;;10.50;99.90;;;;;;5007284;28;20067;-65
2023/10/28 08:21:47;;;;;;;2.55;0.75;;;10.60;99.90;;;;;;5021448;28;20403;-66
2023/10/28 08:24:16;;;;;;;1.83;0.70;;;10.70;99.90;;;;;;5025062;28;20449;-65
2023/10/28 08:26:48;;;;;;;2.65;0.60;;;10.80;99.90;;;;;;5025081;28;20041;-64
2023/10/28 08:29:20;;;;;;;0.90;0.45;;;10.90;99.90;;;;;;5013896;28;20053;-65
2023/10/28 08:31:54;;;;;;;1.02;0.57;;;11.00;99.90;;;;;;5019494;28;20502;-65
2023/10/28 08:34:26;;;;;;;1.77;0.50;;;11.10;99.90;;;;;;5009675;28;20108;-65
2023/10/28 08:36:53;;;;;;;3.78;0.70;;;11.20;99.90;;;;;;5015458;28;20057;-65
2023/10/28 08:39:20;;;;;;;2.30;0.65;;;11.30;99.90;;;;;;5015067;28;20125;-65
2023/10/28 08:41:53;;;;;;;2.85;0.50;;;11.40;99.90;;;;;;5012339;28;20507;-65
2023/10/28 08:44:29;;;;;;;1.10;0.40;;;11.50;99.90;;;;;;5017155;28;20049;-65
2023/10/28 08:47:06;;;;;;;1.05;0.60;;;11.60;99.90;;;;;;5017512;28;20104;-64
2023/10/28 08:49:42;;;;;;;1.08;0.50;;;11.60;99.90;;;;;;5018594;28;20103;-65
2023/10/28 08:52:17;;;;;;;1.23;0.70;;;11.70;99.90;;;;;;5016207;28;20046;-65
2023/10/28 08:54:44;;;;;;;1.38;0.50;;;11.70;99.90;;;;;;5003032;28;20050;-65
2023/10/28 08:57:17;;;;;;;2.88;0.60;;;11.80;99.90;;;;;;5013830;28;20058;-65
2023/10/28 08:59:50;;;;;;;2.13;0.47;;;11.80;99.90;;;;;;5022866;28;20076;-65
2023/10/28 09:02:23;;;;;;;1.83;0.60;;;11.90;99.90;;;;;;5019121;28;20033;-65
2023/10/28 09:04:56;;;;;;;1.92;0.40;;;12.00;99.90;;;;;;5025455;28;20127;-64
2023/10/28 09:07:28;;;;;;;2.65;0.85;;;12.00;99.90;;;;;;5023453;28;20046;-65
2023/10/28 09:10:00;;;;;;;3.65;1.30;;;12.10;99.90;;;;;;5025246;28;20034;-65
2023/10/28 09:12:27;;;;;;;1.38;0.80;;;12.20;99.90;;;;;;5015081;28;20041;-65
2023/10/28 09:14:53;;;;;;;2.95;0.68;;;12.30;99.90;;;;;;5019237;28;20041;-64
2023/10/28 09:17:25;;;;;;;3.30;1.38;;;12.30;99.90;;;;;;5026865;28;20514;-65
2023/10/28 09:19:57;;;;;;;2.03;1.20;;;12.30;99.90;;;;;;5018359;28;20041;-65
2023/10/28 09:22:29;;;;;;;2.63;0.90;;;12.40;99.90;;;;;;5026515;28;20033;-65
2023/10/28 09:25:03;;;;;;;3.45;0.70;;;12.50;99.90;;;;;;5017433;28;20108;-64
2023/10/28 09:27:35;;;;;;;3.05;0.65;;;12.50;99.90;;;;;;5014028;28;20571;-65
2023/10/28 09:30:11;;;;;;;3.40;0.60;;;12.60;99.90;;;;;;5028624;28;20048;-65
2023/10/28 09:32:43;;;;;;;2.38;0.55;;;12.60;99.90;;;;;;5006192;28;20042;-65
2023/10/28 09:35:15;;;;;;;2.60;0.70;;;12.70;99.90;;;;;;5026231;28;20046;-65
2023/10/28 09:37:47;;;;;;;0.57;0.30;;;12.80;99.90;;;;;;5009312;28;20049;-65
2023/10/28 09:40:18;;;;;;;1.30;0.68;;;12.80;99.90;;;;;;5012141;28;20053;-65
2023/10/28 09:42:50;;;;;;;3.20;0.60;;;12.90;99.90;;;;;;5013883;28;20044;-65
2023/10/28 09:45:23;;;;;;;2.33;0.70;;;12.90;99.90;;;;;;5016365;28;20037;-65
2023/10/28 09:47:57;;;;;;;2.60;0.98;;;12.90;99.90;;;;;;5005182;28;20044;-65
2023/10/28 09:50:40;;;;;;;2.35;1.33;;;13.00;99.90;;;;;;5019316;28;20049;-65
2023/10/28 09:53:16;;;;;;;1.95;0.55;;;13.10;99.90;;;;;;5004781;28;20056;-65
2023/10/28 09:55:49;;;;;;;3.95;0.80;;;13.20;99.90;;;;;;5031893;28;20522;-65
2023/10/28 09:58:42;;;;;;;2.28;0.88;;;13.20;99.90;;;;;;5015001;28;20111;-65
2023/10/28 10:01:36;;;;;;;2.33;0.70;;;13.20;99.90;;;;;;4997280;28;20052;-64
2023/10/28 10:04:31;;;;;;;2.13;0.70;;;13.20;99.90;;;;;;5008814;28;20049;-65
2023/10/28 10:06:58;;;;;;;2.75;0.93;;;13.20;99.90;;;;;;5011727;28;20057;-65
2023/10/28 10:09:40;;;;;;;2.85;0.60;;;13.20;99.90;;;;;;5012523;28;20038;-65
2023/10/28 10:12:12;;;;;;;2.05;0.68;;;13.30;99.90;;;;;;5011811;28;20681;-65
2023/10/28 10:14:47;;;;;;;4.40;0.70;;;13.20;99.90;;;;;;5015808;28;20069;-65
2023/10/28 10:17:36;;;;;;;1.70;0.80;;;13.20;99.90;;;;;;5028906;28;20123;-65
2023/10/28 10:20:06;;;;;;;3.78;0.82;;;13.20;99.90;;;;;;5017421;28;20060;-65
2023/10/28 10:22:39;;;;;;;4.38;0.77;;;13.30;99.90;;;;;;5020455;28;20048;-65
2023/10/28 10:25:07;;;;;;;3.20;0.95;;;13.30;99.90;;;;;;5021429;28;20401;-64
2023/10/28 10:27:44;;;;;;;1.70;0.80;;;13.30;99.90;;;;;;5020353;28;20044;-65
2023/10/28 10:30:12;;;;;;;3.22;0.70;;;13.40;99.90;;;;;;5021583;28;20414;-64
2023/10/28 10:32:45;;;;;;;;;;;13.40;99.90;;;;;;5022212;28;20042;-65
2023/10/28 10:35:28;;;;;;;1.98;0.70;;;13.50;99.90;;;;;;5016388;28;19972;-65
2023/10/28 10:38:08;;;;;;;1.17;0.60;;;13.60;99.90;;;;;;5009915;28;20034;-67
2023/10/28 10:40:46;;;;;;;1.80;0.55;;;13.50;99.90;;;;;;5025298;28;20052;-65
2023/10/28 10:43:19;;;;;;;3.25;1.10;;;13.50;99.90;;;;;;5014670;28;20092;-64
2023/10/28 10:45:51;;;;;;;1.52;0.77;;;13.60;99.90;;;;;;5027045;28;20069;-64
2023/10/28 10:48:25;;;;;;;3.38;1.17;;;13.60;99.90;;;;;;5020234;28;20388;-64
2023/10/28 10:50:59;;;;;;;2.38;1.25;;;13.70;99.90;;;;;;5020765;28;20075;-64
2023/10/28 10:53:41;;;;;;;2.03;1.25;;;13.70;99.90;;;;;;5024661;28;20041;-64
2023/10/28 10:56:18;;;;;;;3.90;1.42;;;13.80;99.90;;;;;;5021327;28;20045;-64
2023/10/28 10:59:14;;;;;;;3.97;1.27;;;13.80;99.90;;;;;;5013904;28;20413;-67
2023/10/28 11:01:46;;;;;;;4.72;1.40;;;13.80;99.90;;;;;;5015267;28;20049;-65
2023/10/28 11:04:18;;;;;;;6.80;1.35;;;14.00;99.90;;;;;;5027993;28;20033;-64
2023/10/28 11:06:51;;;;;;;6.72;1.90;;;14.00;99.90;;;;;;5033121;28;20510;-64
2023/10/28 11:09:24;;;;;;;2.42;0.98;;;14.10;99.90;;;;;;5030005;28;20046;-64
2023/10/28 11:11:50;;;;;;;3.75;1.73;;;14.30;99.90;;;;;;5027170;28;20051;-65
2023/10/28 11:14:23;;;;;;;3.47;2.00;;;14.30;99.90;;;;;;5016574;28;20050;-65
2023/10/28 11:16:55;;;;;;;4.40;1.33;;;14.30;99.90;;;;;;5022487;28;20060;-64
2023/10/28 11:19:27;;;;;;;2.75;1.02;;;14.30;99.90;;;;;;5023748;28;20133;-64
2023/10/28 11:21:59;;;;;;;2.70;0.90;;;14.40;99.90;;;;;;5027854;28;20136;-64
2023/10/28 11:24:34;;;;;;;2.67;0.80;;;14.40;99.90;;;;;;5019724;28;20042;-64
2023/10/28 11:27:06;;;;;;;3.85;0.88;;;14.40;99.90;;;;;;5017337;28;20034;-64
2023/10/28 11:29:40;;;;;;;3.50;1.05;;;14.40;99.90;;;;;;5015137;28;20033;-64
2023/10/28 11:32:12;;;;;;;3.70;1.17;;;14.60;99.90;;;;;;5016075;28;20045;-63
2023/10/28 11:34:40;;;;;;;2.58;0.90;;;14.80;99.90;;;;;;5013550;28;20133;-64
2023/10/28 11:37:12;;;;;;;4.40;0.80;;;14.90;99.90;;;;;;5013667;28;20103;-64
2023/10/28 11:39:44;;;;;;;1.20;0.60;;;14.90;99.90;;;;;;5017963;28;20046;-64
2023/10/28 11:42:18;;;;;;;2.45;1.05;;;14.90;99.90;;;;;;5009378;28;20407;-64
2023/10/28 11:44:51;;;;;;;3.58;0.80;;;14.90;99.90;;;;;;5017200;28;20053;-64
2023/10/28 11:47:23;;;;;;;4.00;0.65;;;14.80;99.90;;;;;;5018731;28;20096;-64
2023/10/28 11:49:57;;;;;;;9.27;2.85;;;14.80;99.90;;;;;;5020397;28;20409;-64
2023/10/28 11:52:24;;;;;;;2.40;0.65;;;14.80;99.90;;;;;;5024433;28;20038;-64
2023/10/28 11:54:56;;;;;;;2.45;0.80;;;14.70;99.90;;;;;;5021448;28;20093;-64
2023/10/28 11:57:28;;;;;;;7.30;1.70;;;14.80;99.90;;;;;;5023576;28;20045;-64
2023/10/28 11:59:59;;;;;;;2.78;0.73;;;15.00;99.90;;;;;;5026765;28;20054;-64
2023/10/28 12:02:31;;;;;;;3.92;0.73;;;15.10;99.90;;;;;;5013251;28;20046;-64
2023/10/28 12:05:03;;;;;;;3.70;0.80;;;15.30;99.90;;;;;;5029192;28;20042;-64
2023/10/28 12:07:35;;;;;;;4.05;1.00;;;15.30;99.90;;;;;;5028753;28;20709;-64
2023/10/28 12:10:07;;;;;;;6.65;0.95;;;15.30;99.90;;;;;;5029213;28;20045;-64
2023/10/28 12:12:39;;;;;;;4.20;1.20;;;15.30;99.90;;;;;;5015008;28;20494;-65
2023/10/28 12:15:11;;;;;;;6.20;1.10;;;15.40;99.90;;;;;;5016593;28;20065;-64
2023/10/28 12:17:44;;;;;;;3.20;1.00;;;15.40;99.90;;;;;;5043650;28;20050;-64
2023/10/28 12:20:14;;;;;;;6.30;1.65;;;15.40;99.90;;;;;;5027209;28;20038;-64
2023/10/28 12:22:46;;;;;;;6.10;0.88;;;15.40;99.90;;;;;;5025432;28;20125;-64
2023/10/28 12:25:14;;;;;;;3.10;1.10;;;15.30;99.90;;;;;;5022045;28;20132;-64
2023/10/28 12:27:46;;;;;;;4.18;1.13;;;15.30;99.90;;;;;;5022010;28;20044;-64
2023/10/28 12:30:18;;;;;;;5.03;0.80;;;15.30;99.90;;;;;;5025022;28;20041;-64
2023/10/28 12:32:51;;;;;;;3.80;1.13;;;15.20;99.90;;;;;;5026989;28;20053;-64
2023/10/28 12:35:23;;;;;;;4.68;1.25;;;15.20;99.90;;;;;;5029311;28;20046;-64
2023/10/28 12:37:54;;;;;;;4.15;1.20;;;15.10;99.90;;;;;;5010039;28;20546;-65
2023/10/28 12:40:26;;;;;;;1.98;0.93;;;15.10;99.90;;;;;;5014052;28;20056;-64
2023/10/28 12:42:59;;;;;;;3.05;1.05;;;15.10;99.90;;;;;;5031514;28;20050;-64
2023/10/28 12:45:31;;;;;;;2.83;0.90;;;15.20;99.90;;;;;;5030088;28;20029;-64
2023/10/28 12:47:58;;;;;;;3.22;1.50;;;15.30;99.90;;;;;;5028356;28;20497;-64
2023/10/28 12:50:30;;;;;;;3.30;0.85;;;15.40;99.90;;;;;;5027179;28;20052;-64
2023/10/28 12:53:02;;;;;;;3.28;0.80;;;15.40;99.90;;;;;;5024498;28;20409;-64
2023/10/28 12:55:34;;;;;;;2.08;0.60;;;15.60;99.90;;;;;;5022812;28;20034;-64
2023/10/28 12:58:07;;;;;;;3.38;0.93;;;15.60;99.90;;;;;;5020316;28;20577;-64
2023/10/28 13:00:40;;;;;;;4.28;1.25;;;15.30;99.90;;;;;;5016627;28;20510;-64
2023/10/28 13:03:13;;;;;;;2.13;0.80;;;15.10;99.90;;;;;;5022332;28;20046;-64
2023/10/28 13:05:45;;;;;;;9.65;1.77;;;15.10;99.90;;;;;;5007630;28;20053;-64
2023/10/28 13:08:17;;;;;;;2.50;0.75;;;15.00;99.90;;;;;;5012406;28;20073;-64
2023/10/28 13:10:49;;;;;;;4.05;0.90;;;15.00;99.90;;;;;;5027939;28;20049;-64
2023/10/28 13:13:15;;;;;;;2.17;0.70;;;15.00;99.90;;;;;;5027930;28;20045;-64
2023/10/28 13:15:48;;;;;;;3.13;0.90;;;15.00;99.90;;;;;;5045110;28;20054;-64
2023/10/28 13:18:20;;;;;;;2.95;0.75;;;14.90;99.90;;;;;;5029876;28;20503;-64